sensor_id;sensor_type;location;lat;lon;timestamp;P1;durP1;ratioP1;P2;durP2;ratioP2
40955;SDS011;26687;48.254;11.454;2023-03-21T00:02:30;4.57;;;3.90;;
40955;SDS011;26687;48.254;11.454;2023-03-21T00:05:30;3.90;;;3.60;;
40955;SDS011;26687;48.254;11.454;2023-03-21T00:08:31;4.10;;;3.70;;
40955;SDS011;26687;48.254;11.454;2023-03-21T00:11:31;4.22;;;3.83;;
40955;SDS011;26687;48.254;11.454;2023-03-21T00:14:31;4.77;;;3.97;;
40955;SDS011;26687;48.254;11.454;2023-03-21T00:17:32;4.43;;;3.83;;
40955;SDS011;26687;48.254;11.454;2023-03-21T00:20:32;4.25;;;3.85;;
40955;SDS011;26687;48.254;11.454;2023-03-21T00:23:36;4.45;;;3.88;;
40955;SDS011;26687;48.254;11.454;2023-03-21T00:26:36;4.30;;;3.80;;
40955;SDS011;26687;48.254;11.454;2023-03-21T00:29:37;4.65;;;3.63;;
40955;SDS011;26687;48.254;11.454;2023-03-21T00:32:37;3.80;;;3.50;;
40955;SDS011;26687;48.254;11.454;2023-03-21T00:35:37;4.28;;;3.88;;
40955;SDS011;26687;48.254;11.454;2023-03-21T00:38:37;5.25;;;3.95;;
40955;SDS011;26687;48.254;11.454;2023-03-21T00:41:38;4.23;;;3.90;;
40955;SDS011;26687;48.254;11.454;2023-03-21T00:44:39;4.22;;;3.50;;
40955;SDS011;26687;48.254;11.454;2023-03-21T00:47:39;3.60;;;3.30;;
40955;SDS011;26687;48.254;11.454;2023-03-21T00:50:39;4.00;;;3.40;;
40955;SDS011;26687;48.254;11.454;2023-03-21T00:53:41;3.95;;;3.65;;
40955;SDS011;26687;48.254;11.454;2023-03-21T00:56:41;4.55;;;3.38;;
40955;SDS011;26687;48.254;11.454;2023-03-21T00:59:41;3.65;;;3.35;;
40955;SDS011;26687;48.254;11.454;2023-03-21T01:02:42;3.90;;;3.50;;
40955;SDS011;26687;48.254;11.454;2023-03-21T01:09:05;4.10;;;3.70;;
40955;SDS011;26687;48.254;11.454;2023-03-21T01:12:06;5.20;;;3.95;;
40955;SDS011;26687;48.254;11.454;2023-03-21T01:15:07;4.03;;;3.73;;
40955;SDS011;26687;48.254;11.454;2023-03-21T01:18:07;4.07;;;3.73;;
40955;SDS011;26687;48.254;11.454;2023-03-21T01:21:09;3.80;;;3.40;;
40955;SDS011;26687;48.254;11.454;2023-03-21T01:24:09;3.87;;;3.33;;
40955;SDS011;26687;48.254;11.454;2023-03-21T01:27:10;4.23;;;3.83;;
40955;SDS011;26687;48.254;11.454;2023-03-21T01:30:10;3.85;;;3.47;;
40955;SDS011;26687;48.254;11.454;2023-03-21T01:33:11;3.47;;;3.17;;
40955;SDS011;26687;48.254;11.454;2023-03-21T01:36:21;4.05;;;3.65;;
40955;SDS011;26687;48.254;11.454;2023-03-21T01:39:22;3.35;;;3.08;;
40955;SDS011;26687;48.254;11.454;2023-03-21T01:42:22;3.80;;;3.50;;
40955;SDS011;26687;48.254;11.454;2023-03-21T01:48:41;3.72;;;3.40;;
40955;SDS011;26687;48.254;11.454;2023-03-21T01:51:46;3.70;;;3.40;;
40955;SDS011;26687;48.254;11.454;2023-03-21T01:54:47;5.05;;;3.85;;
40955;SDS011;26687;48.254;11.454;2023-03-21T01:57:48;4.00;;;3.60;;
40955;SDS011;26687;48.254;11.454;2023-03-21T02:00:51;4.60;;;3.40;;
40955;SDS011;26687;48.254;11.454;2023-03-21T02:03:54;3.50;;;3.17;;
40955;SDS011;26687;48.254;11.454;2023-03-21T02:06:56;4.32;;;3.38;;
40955;SDS011;26687;48.254;11.454;2023-03-21T02:12:59;3.55;;;3.10;;
40955;SDS011;26687;48.254;11.454;2023-03-21T02:16:10;3.80;;;3.50;;
40955;SDS011;26687;48.254;11.454;2023-03-21T02:28:31;4.07;;;3.53;;
40955;SDS011;26687;48.254;11.454;2023-03-21T02:31:48;3.90;;;3.60;;
40955;SDS011;26687;48.254;11.454;2023-03-21T02:34:56;4.43;;;3.38;;
40955;SDS011;26687;48.254;11.454;2023-03-21T02:47:21;3.85;;;3.47;;
40955;SDS011;26687;48.254;11.454;2023-03-21T02:50:23;4.82;;;3.58;;
40955;SDS011;26687;48.254;11.454;2023-03-21T02:53:27;4.38;;;3.55;;
40955;SDS011;26687;48.254;11.454;2023-03-21T02:56:29;3.95;;;3.65;;
40955;SDS011;26687;48.254;11.454;2023-03-21T02:59:30;3.58;;;3.33;;
40955;SDS011;26687;48.254;11.454;2023-03-21T03:02:31;3.13;;;2.92;;
40955;SDS011;26687;48.254;11.454;2023-03-21T03:05:33;3.50;;;3.20;;
40955;SDS011;26687;48.254;11.454;2023-03-21T03:08:40;3.58;;;3.28;;
40955;SDS011;26687;48.254;11.454;2023-03-21T03:11:42;3.50;;;3.20;;
40955;SDS011;26687;48.254;11.454;2023-03-21T03:18:09;3.95;;;3.60;;
40955;SDS011;26687;48.254;11.454;2023-03-21T03:21:14;3.65;;;3.35;;
40955;SDS011;26687;48.254;11.454;2023-03-21T03:24:19;3.65;;;3.30;;
40955;SDS011;26687;48.254;11.454;2023-03-21T03:27:23;4.22;;;3.83;;
40955;SDS011;26687;48.254;11.454;2023-03-21T03:30:24;4.03;;;3.63;;
40955;SDS011;26687;48.254;11.454;2023-03-21T03:33:26;3.28;;;3.08;;
40955;SDS011;26687;48.254;11.454;2023-03-21T03:36:29;3.80;;;3.50;;
40955;SDS011;26687;48.254;11.454;2023-03-21T03:39:35;4.10;;;3.80;;
40955;SDS011;26687;48.254;11.454;2023-03-21T03:45:39;4.00;;;3.70;;
40955;SDS011;26687;48.254;11.454;2023-03-21T03:49:04;5.35;;;4.15;;
40955;SDS011;26687;48.254;11.454;2023-03-21T03:52:03;4.25;;;3.85;;
40955;SDS011;26687;48.254;11.454;2023-03-21T03:55:08;4.15;;;3.45;;
40955;SDS011;26687;48.254;11.454;2023-03-21T03:58:09;4.10;;;3.80;;
40955;SDS011;26687;48.254;11.454;2023-03-21T04:01:09;3.73;;;3.43;;
40955;SDS011;26687;48.254;11.454;2023-03-21T04:04:09;4.57;;;3.92;;
40955;SDS011;26687;48.254;11.454;2023-03-21T04:07:10;3.97;;;3.67;;
40955;SDS011;26687;48.254;11.454;2023-03-21T04:10:10;4.10;;;3.80;;
40955;SDS011;26687;48.254;11.454;2023-03-21T04:13:10;3.83;;;3.53;;
40955;SDS011;26687;48.254;11.454;2023-03-21T04:16:10;3.30;;;3.10;;
40955;SDS011;26687;48.254;11.454;2023-03-21T04:19:11;4.47;;;3.85;;
40955;SDS011;26687;48.254;11.454;2023-03-21T04:22:12;4.07;;;3.60;;
40955;SDS011;26687;48.254;11.454;2023-03-21T04:25:12;4.00;;;3.70;;
40955;SDS011;26687;48.254;11.454;2023-03-21T04:28:12;4.47;;;4.10;;
40955;SDS011;26687;48.254;11.454;2023-03-21T04:31:12;4.20;;;3.60;;
40955;SDS011;26687;48.254;11.454;2023-03-21T04:34:13;4.18;;;3.65;;
40955;SDS011;26687;48.254;11.454;2023-03-21T04:37:13;4.07;;;3.72;;
40955;SDS011;26687;48.254;11.454;2023-03-21T04:40:14;4.32;;;3.92;;
40955;SDS011;26687;48.254;11.454;2023-03-21T04:43:16;4.50;;;4.10;;
40955;SDS011;26687;48.254;11.454;2023-03-21T04:46:16;4.10;;;3.80;;
40955;SDS011;26687;48.254;11.454;2023-03-21T04:49:17;4.22;;;3.92;;
40955;SDS011;26687;48.254;11.454;2023-03-21T04:52:18;5.47;;;3.90;;
40955;SDS011;26687;48.254;11.454;2023-03-21T04:55:18;3.72;;;3.40;;
40955;SDS011;26687;48.254;11.454;2023-03-21T04:58:20;5.43;;;4.93;;
40955;SDS011;26687;48.254;11.454;2023-03-21T05:01:20;5.13;;;4.05;;
40955;SDS011;26687;48.254;11.454;2023-03-21T05:04:21;5.30;;;4.80;;
40955;SDS011;26687;48.254;11.454;2023-03-21T05:07:21;4.00;;;3.70;;
40955;SDS011;26687;48.254;11.454;2023-03-21T05:10:25;4.95;;;4.53;;
40955;SDS011;26687;48.254;11.454;2023-03-21T05:13:25;5.18;;;4.68;;
40955;SDS011;26687;48.254;11.454;2023-03-21T05:16:26;5.00;;;4.50;;
40955;SDS011;26687;48.254;11.454;2023-03-21T05:19:29;4.82;;;4.40;;
40955;SDS011;26687;48.254;11.454;2023-03-21T05:22:39;4.90;;;4.40;;
40955;SDS011;26687;48.254;11.454;2023-03-21T05:25:39;7.05;;;4.70;;
40955;SDS011;26687;48.254;11.454;2023-03-21T05:28:39;4.55;;;4.15;;
40955;SDS011;26687;48.254;11.454;2023-03-21T05:31:39;6.00;;;4.38;;
40955;SDS011;26687;48.254;11.454;2023-03-21T05:34:39;4.68;;;4.38;;
40955;SDS011;26687;48.254;11.454;2023-03-21T05:37:40;4.93;;;4.38;;
40955;SDS011;26687;48.254;11.454;2023-03-21T05:40:40;4.55;;;4.25;;
40955;SDS011;26687;48.254;11.454;2023-03-21T05:43:40;4.70;;;4.18;;
40955;SDS011;26687;48.254;11.454;2023-03-21T05:46:41;4.32;;;4.00;;
40955;SDS011;26687;48.254;11.454;2023-03-21T05:49:42;4.50;;;4.18;;
40955;SDS011;26687;48.254;11.454;2023-03-21T05:52:42;4.80;;;4.40;;
40955;SDS011;26687;48.254;11.454;2023-03-21T05:55:42;4.68;;;4.28;;
40955;SDS011;26687;48.254;11.454;2023-03-21T05:58:43;4.07;;;3.70;;
40955;SDS011;26687;48.254;11.454;2023-03-21T06:01:43;3.80;;;3.42;;
40955;SDS011;26687;48.254;11.454;2023-03-21T06:04:43;4.05;;;3.75;;
40955;SDS011;26687;48.254;11.454;2023-03-21T06:07:43;4.03;;;3.72;;
40955;SDS011;26687;48.254;11.454;2023-03-21T06:10:43;4.10;;;3.70;;
40955;SDS011;26687;48.254;11.454;2023-03-21T06:13:44;3.78;;;3.47;;
40955;SDS011;26687;48.254;11.454;2023-03-21T06:16:44;5.05;;;4.07;;
40955;SDS011;26687;48.254;11.454;2023-03-21T06:19:44;4.55;;;3.65;;
40955;SDS011;26687;48.254;11.454;2023-03-21T06:22:45;4.35;;;4.03;;
40955;SDS011;26687;48.254;11.454;2023-03-21T06:25:46;5.03;;;4.53;;
40955;SDS011;26687;48.254;11.454;2023-03-21T06:28:46;4.85;;;4.45;;
40955;SDS011;26687;48.254;11.454;2023-03-21T06:31:46;4.30;;;4.00;;
40955;SDS011;26687;48.254;11.454;2023-03-21T06:34:47;5.00;;;4.60;;
40955;SDS011;26687;48.254;11.454;2023-03-21T06:37:47;5.33;;;4.80;;
40955;SDS011;26687;48.254;11.454;2023-03-21T06:40:48;8.93;;;8.02;;
40955;SDS011;26687;48.254;11.454;2023-03-21T06:43:48;9.05;;;7.70;;
40955;SDS011;26687;48.254;11.454;2023-03-21T06:46:49;6.00;;;5.50;;
40955;SDS011;26687;48.254;11.454;2023-03-21T06:49:49;4.97;;;4.57;;
40955;SDS011;26687;48.254;11.454;2023-03-21T06:52:50;4.78;;;4.38;;
40955;SDS011;26687;48.254;11.454;2023-03-21T06:55:52;5.03;;;4.57;;
40955;SDS011;26687;48.254;11.454;2023-03-21T06:58:52;4.82;;;4.43;;
40955;SDS011;26687;48.254;11.454;2023-03-21T07:01:52;5.10;;;4.60;;
40955;SDS011;26687;48.254;11.454;2023-03-21T07:04:53;4.60;;;4.20;;
40955;SDS011;26687;48.254;11.454;2023-03-21T07:07:53;5.00;;;4.50;;
40955;SDS011;26687;48.254;11.454;2023-03-21T07:10:54;4.60;;;4.20;;
40955;SDS011;26687;48.254;11.454;2023-03-21T07:13:55;5.22;;;4.82;;
40955;SDS011;26687;48.254;11.454;2023-03-21T07:16:55;4.75;;;4.35;;
40955;SDS011;26687;48.254;11.454;2023-03-21T07:19:55;4.65;;;4.25;;
40955;SDS011;26687;48.254;11.454;2023-03-21T07:22:56;5.50;;;5.00;;
40955;SDS011;26687;48.254;11.454;2023-03-21T07:25:56;5.13;;;4.03;;
40955;SDS011;26687;48.254;11.454;2023-03-21T07:28:57;5.50;;;4.10;;
40955;SDS011;26687;48.254;11.454;2023-03-21T07:31:57;4.85;;;4.45;;
40955;SDS011;26687;48.254;11.454;2023-03-21T07:34:57;5.45;;;4.55;;
40955;SDS011;26687;48.254;11.454;2023-03-21T07:37:57;4.70;;;4.18;;
40955;SDS011;26687;48.254;11.454;2023-03-21T07:40:58;4.38;;;4.07;;
40955;SDS011;26687;48.254;11.454;2023-03-21T07:43:58;4.60;;;4.20;;
40955;SDS011;26687;48.254;11.454;2023-03-21T07:46:58;4.50;;;4.10;;
40955;SDS011;26687;48.254;11.454;2023-03-21T07:49:59;4.88;;;4.13;;
40955;SDS011;26687;48.254;11.454;2023-03-21T07:52:59;4.35;;;3.97;;
40955;SDS011;26687;48.254;11.454;2023-03-21T07:56:00;3.80;;;3.50;;
40955;SDS011;26687;48.254;11.454;2023-03-21T07:59:00;5.85;;;3.72;;
40955;SDS011;26687;48.254;11.454;2023-03-21T08:02:00;3.93;;;3.63;;
40955;SDS011;26687;48.254;11.454;2023-03-21T08:05:01;4.53;;;4.13;;
40955;SDS011;26687;48.254;11.454;2023-03-21T08:08:03;5.75;;;4.55;;
40955;SDS011;26687;48.254;11.454;2023-03-21T08:11:04;4.70;;;4.00;;
40955;SDS011;26687;48.254;11.454;2023-03-21T08:14:04;4.18;;;3.80;;
40955;SDS011;26687;48.254;11.454;2023-03-21T08:17:05;5.67;;;3.97;;
40955;SDS011;26687;48.254;11.454;2023-03-21T08:20:06;5.40;;;3.75;;
40955;SDS011;26687;48.254;11.454;2023-03-21T08:23:07;4.03;;;3.63;;
40955;SDS011;26687;48.254;11.454;2023-03-21T08:26:08;4.40;;;3.87;;
40955;SDS011;26687;48.254;11.454;2023-03-21T08:29:09;4.00;;;3.63;;
40955;SDS011;26687;48.254;11.454;2023-03-21T08:32:09;5.90;;;4.32;;
40955;SDS011;26687;48.254;11.454;2023-03-21T08:35:10;4.53;;;4.13;;
40955;SDS011;26687;48.254;11.454;2023-03-21T08:38:11;4.38;;;3.55;;
40955;SDS011;26687;48.254;11.454;2023-03-21T08:41:11;3.70;;;3.40;;
40955;SDS011;26687;48.254;11.454;2023-03-21T08:44:11;4.03;;;3.63;;
40955;SDS011;26687;48.254;11.454;2023-03-21T08:47:12;4.83;;;4.33;;
40955;SDS011;26687;48.254;11.454;2023-03-21T08:50:13;4.55;;;4.15;;
40955;SDS011;26687;48.254;11.454;2023-03-21T08:53:14;4.65;;;4.22;;
40955;SDS011;26687;48.254;11.454;2023-03-21T08:56:15;4.68;;;4.05;;
40955;SDS011;26687;48.254;11.454;2023-03-21T08:59:15;4.60;;;4.20;;
40955;SDS011;26687;48.254;11.454;2023-03-21T09:02:15;4.90;;;4.40;;
40955;SDS011;26687;48.254;11.454;2023-03-21T09:05:16;4.57;;;4.18;;
40955;SDS011;26687;48.254;11.454;2023-03-21T09:08:17;4.88;;;4.38;;
40955;SDS011;26687;48.254;11.454;2023-03-21T09:11:22;5.93;;;5.03;;
40955;SDS011;26687;48.254;11.454;2023-03-21T09:14:22;5.47;;;4.63;;
40955;SDS011;26687;48.254;11.454;2023-03-21T09:17:22;5.28;;;4.78;;
40955;SDS011;26687;48.254;11.454;2023-03-21T09:20:23;5.07;;;4.68;;
40955;SDS011;26687;48.254;11.454;2023-03-21T09:23:31;5.28;;;4.55;;
40955;SDS011;26687;48.254;11.454;2023-03-21T09:26:33;4.53;;;4.13;;
40955;SDS011;26687;48.254;11.454;2023-03-21T09:29:33;5.10;;;4.40;;
40955;SDS011;26687;48.254;11.454;2023-03-21T09:32:33;3.78;;;3.47;;
40955;SDS011;26687;48.254;11.454;2023-03-21T09:35:34;7.60;;;4.22;;
40955;SDS011;26687;48.254;11.454;2023-03-21T09:38:34;5.40;;;4.18;;
40955;SDS011;26687;48.254;11.454;2023-03-21T09:45:04;4.65;;;3.33;;
40955;SDS011;26687;48.254;11.454;2023-03-21T09:48:11;4.40;;;3.97;;
40955;SDS011;26687;48.254;11.454;2023-03-21T09:51:16;4.25;;;3.85;;
40955;SDS011;26687;48.254;11.454;2023-03-21T09:54:24;5.65;;;4.20;;
40955;SDS011;26687;48.254;11.454;2023-03-21T10:00:27;6.55;;;4.75;;
40955;SDS011;26687;48.254;11.454;2023-03-21T10:03:31;4.72;;;4.20;;
40955;SDS011;26687;48.254;11.454;2023-03-21T10:06:34;4.47;;;3.97;;
40955;SDS011;26687;48.254;11.454;2023-03-21T10:09:40;2.75;;;2.45;;
40955;SDS011;26687;48.254;11.454;2023-03-21T10:12:40;4.63;;;2.92;;
40955;SDS011;26687;48.254;11.454;2023-03-21T10:15:41;3.45;;;3.08;;
40955;SDS011;26687;48.254;11.454;2023-03-21T10:18:42;4.15;;;2.97;;
40955;SDS011;26687;48.254;11.454;2023-03-21T10:21:44;3.20;;;2.90;;
40955;SDS011;26687;48.254;11.454;2023-03-21T10:24:45;3.00;;;2.80;;
40955;SDS011;26687;48.254;11.454;2023-03-21T10:27:45;4.70;;;3.10;;
40955;SDS011;26687;48.254;11.454;2023-03-21T10:30:53;3.60;;;3.20;;
40955;SDS011;26687;48.254;11.454;2023-03-21T10:33:54;3.90;;;2.90;;
40955;SDS011;26687;48.254;11.454;2023-03-21T10:36:55;3.58;;;3.28;;
40955;SDS011;26687;48.254;11.454;2023-03-21T10:39:55;5.10;;;3.30;;
40955;SDS011;26687;48.254;11.454;2023-03-21T10:42:56;4.27;;;3.53;;
40955;SDS011;26687;48.254;11.454;2023-03-21T10:46:18;3.03;;;2.83;;
40955;SDS011;26687;48.254;11.454;2023-03-21T10:49:22;3.45;;;3.13;;
40955;SDS011;26687;48.254;11.454;2023-03-21T10:52:26;3.35;;;3.05;;
40955;SDS011;26687;48.254;11.454;2023-03-21T10:55:27;3.67;;;2.90;;
40955;SDS011;26687;48.254;11.454;2023-03-21T10:58:29;3.95;;;3.58;;
40955;SDS011;26687;48.254;11.454;2023-03-21T11:01:39;3.33;;;2.97;;
40955;SDS011;26687;48.254;11.454;2023-03-21T11:04:41;5.10;;;3.20;;
40955;SDS011;26687;48.254;11.454;2023-03-21T11:07:42;2.77;;;2.57;;
40955;SDS011;26687;48.254;11.454;2023-03-21T11:14:03;3.22;;;2.92;;
40955;SDS011;26687;48.254;11.454;2023-03-21T11:20:17;2.45;;;2.17;;
40955;SDS011;26687;48.254;11.454;2023-03-21T11:23:18;3.22;;;2.63;;
40955;SDS011;26687;48.254;11.454;2023-03-21T11:26:19;2.85;;;2.65;;
40955;SDS011;26687;48.254;11.454;2023-03-21T11:29:33;3.30;;;2.65;;
40955;SDS011;26687;48.254;11.454;2023-03-21T11:32:37;2.25;;;2.15;;
40955;SDS011;26687;48.254;11.454;2023-03-21T11:35:37;2.78;;;2.58;;
40955;SDS011;26687;48.254;11.454;2023-03-21T11:38:38;2.67;;;2.28;;
40955;SDS011;26687;48.254;11.454;2023-03-21T11:41:39;2.45;;;2.25;;
40955;SDS011;26687;48.254;11.454;2023-03-21T11:44:42;2.88;;;2.67;;
40955;SDS011;26687;48.254;11.454;2023-03-21T11:47:43;4.03;;;2.70;;
40955;SDS011;26687;48.254;11.454;2023-03-21T11:50:45;2.78;;;2.33;;
40955;SDS011;26687;48.254;11.454;2023-03-21T11:56:57;2.85;;;2.50;;
40955;SDS011;26687;48.254;11.454;2023-03-21T12:00:11;3.47;;;2.83;;
40955;SDS011;26687;48.254;11.454;2023-03-21T12:06:21;2.85;;;2.65;;
40955;SDS011;26687;48.254;11.454;2023-03-21T12:12:32;2.50;;;2.30;;
40955;SDS011;26687;48.254;11.454;2023-03-21T12:15:41;2.78;;;2.58;;
40955;SDS011;26687;48.254;11.454;2023-03-21T12:24:49;3.90;;;2.72;;
40955;SDS011;26687;48.254;11.454;2023-03-21T12:27:59;3.15;;;2.80;;
40955;SDS011;26687;48.254;11.454;2023-03-21T12:31:10;3.20;;;2.90;;
40955;SDS011;26687;48.254;11.454;2023-03-21T12:43:52;3.53;;;2.83;;
40955;SDS011;26687;48.254;11.454;2023-03-21T12:47:05;2.90;;;2.70;;
40955;SDS011;26687;48.254;11.454;2023-03-21T12:53:25;3.22;;;2.40;;
40955;SDS011;26687;48.254;11.454;2023-03-21T12:56:31;2.50;;;2.30;;
40955;SDS011;26687;48.254;11.454;2023-03-21T13:02:37;2.28;;;2.17;;
40955;SDS011;26687;48.254;11.454;2023-03-21T13:08:45;3.17;;;2.90;;
40955;SDS011;26687;48.254;11.454;2023-03-21T13:11:47;2.55;;;2.35;;
40955;SDS011;26687;48.254;11.454;2023-03-21T13:15:11;2.40;;;2.20;;
40955;SDS011;26687;48.254;11.454;2023-03-21T13:25:02;2.45;;;2.25;;
40955;SDS011;26687;48.254;11.454;2023-03-21T13:28:03;2.58;;;2.38;;
40955;SDS011;26687;48.254;11.454;2023-03-21T13:34:13;2.53;;;2.33;;
40955;SDS011;26687;48.254;11.454;2023-03-21T13:37:15;2.85;;;2.28;;
40955;SDS011;26687;48.254;11.454;2023-03-21T13:40:23;2.47;;;2.28;;
40955;SDS011;26687;48.254;11.454;2023-03-21T13:43:31;2.20;;;2.00;;
40955;SDS011;26687;48.254;11.454;2023-03-21T13:46:34;2.40;;;2.10;;
40955;SDS011;26687;48.254;11.454;2023-03-21T13:49:36;2.03;;;1.83;;
40955;SDS011;26687;48.254;11.454;2023-03-21T13:52:36;2.50;;;2.30;;
40955;SDS011;26687;48.254;11.454;2023-03-21T13:55:41;2.20;;;2.00;;
40955;SDS011;26687;48.254;11.454;2023-03-21T14:05:02;1.80;;;1.70;;
40955;SDS011;26687;48.254;11.454;2023-03-21T14:08:07;2.10;;;1.90;;
40955;SDS011;26687;48.254;11.454;2023-03-21T14:11:11;2.22;;;1.90;;
40955;SDS011;26687;48.254;11.454;2023-03-21T14:14:13;1.85;;;1.75;;
40955;SDS011;26687;48.254;11.454;2023-03-21T14:17:19;2.28;;;2.08;;
40955;SDS011;26687;48.254;11.454;2023-03-21T14:20:25;2.30;;;2.10;;
40955;SDS011;26687;48.254;11.454;2023-03-21T14:23:26;2.08;;;1.98;;
40955;SDS011;26687;48.254;11.454;2023-03-21T14:26:28;2.83;;;1.90;;
40955;SDS011;26687;48.254;11.454;2023-03-21T14:29:29;2.22;;;2.10;;
40955;SDS011;26687;48.254;11.454;2023-03-21T14:32:31;2.10;;;1.92;;
40955;SDS011;26687;48.254;11.454;2023-03-21T14:35:31;2.83;;;2.40;;
40955;SDS011;26687;48.254;11.454;2023-03-21T14:38:33;2.60;;;2.40;;
40955;SDS011;26687;48.254;11.454;2023-03-21T14:41:34;2.40;;;2.20;;
40955;SDS011;26687;48.254;11.454;2023-03-21T14:44:47;2.78;;;2.00;;
40955;SDS011;26687;48.254;11.454;2023-03-21T14:47:54;2.38;;;2.15;;
40955;SDS011;26687;48.254;11.454;2023-03-21T14:50:55;3.72;;;2.10;;
40955;SDS011;26687;48.254;11.454;2023-03-21T14:53:56;2.60;;;2.40;;
40955;SDS011;26687;48.254;11.454;2023-03-21T14:57:04;2.75;;;2.45;;
40955;SDS011;26687;48.254;11.454;2023-03-21T15:00:07;2.67;;;2.47;;
40955;SDS011;26687;48.254;11.454;2023-03-21T15:03:11;2.65;;;2.45;;
40955;SDS011;26687;48.254;11.454;2023-03-21T15:06:12;2.80;;;2.60;;
40955;SDS011;26687;48.254;11.454;2023-03-21T15:09:14;3.47;;;2.67;;
40955;SDS011;26687;48.254;11.454;2023-03-21T15:12:14;2.55;;;2.35;;
40955;SDS011;26687;48.254;11.454;2023-03-21T15:15:15;2.60;;;2.35;;
40955;SDS011;26687;48.254;11.454;2023-03-21T15:18:19;4.60;;;2.72;;
40955;SDS011;26687;48.254;11.454;2023-03-21T15:21:25;6.50;;;3.00;;
40955;SDS011;26687;48.254;11.454;2023-03-21T15:24:28;2.65;;;2.40;;
40955;SDS011;26687;48.254;11.454;2023-03-21T15:27:30;3.40;;;3.10;;
40955;SDS011;26687;48.254;11.454;2023-03-21T15:30:31;3.38;;;3.10;;
40955;SDS011;26687;48.254;11.454;2023-03-21T15:33:33;2.85;;;2.65;;
40955;SDS011;26687;48.254;11.454;2023-03-21T15:36:41;3.25;;;2.90;;
40955;SDS011;26687;48.254;11.454;2023-03-21T15:39:42;2.78;;;2.58;;
40955;SDS011;26687;48.254;11.454;2023-03-21T15:42:42;3.45;;;2.97;;
40955;SDS011;26687;48.254;11.454;2023-03-21T15:48:46;4.35;;;3.53;;
40955;SDS011;26687;48.254;11.454;2023-03-21T15:54:55;3.17;;;2.90;;
40955;SDS011;26687;48.254;11.454;2023-03-21T15:57:59;3.53;;;2.85;;
40955;SDS011;26687;48.254;11.454;2023-03-21T16:01:04;3.67;;;3.20;;
40955;SDS011;26687;48.254;11.454;2023-03-21T16:04:06;3.90;;;3.30;;
40955;SDS011;26687;48.254;11.454;2023-03-21T16:07:13;3.13;;;2.80;;
40955;SDS011;26687;48.254;11.454;2023-03-21T16:10:28;3.35;;;3.15;;
40955;SDS011;26687;48.254;11.454;2023-03-21T16:13:28;3.30;;;3.10;;
40955;SDS011;26687;48.254;11.454;2023-03-21T16:16:29;3.60;;;3.30;;
40955;SDS011;26687;48.254;11.454;2023-03-21T16:19:29;3.95;;;3.58;;
40955;SDS011;26687;48.254;11.454;2023-03-21T16:22:30;3.57;;;3.27;;
40955;SDS011;26687;48.254;11.454;2023-03-21T16:25:33;4.07;;;3.35;;
40955;SDS011;26687;48.254;11.454;2023-03-21T16:28:34;3.60;;;3.40;;
40955;SDS011;26687;48.254;11.454;2023-03-21T16:31:34;3.50;;;3.20;;
40955;SDS011;26687;48.254;11.454;2023-03-21T16:34:36;4.30;;;3.90;;
40955;SDS011;26687;48.254;11.454;2023-03-21T16:37:36;3.57;;;3.37;;
40955;SDS011;26687;48.254;11.454;2023-03-21T16:40:37;3.92;;;3.60;;
40955;SDS011;26687;48.254;11.454;2023-03-21T16:43:38;3.88;;;3.55;;
40955;SDS011;26687;48.254;11.454;2023-03-21T16:46:41;4.40;;;4.00;;
40955;SDS011;26687;48.254;11.454;2023-03-21T16:49:42;4.63;;;3.83;;
40955;SDS011;26687;48.254;11.454;2023-03-21T16:52:43;4.68;;;3.70;;
40955;SDS011;26687;48.254;11.454;2023-03-21T16:55:43;6.20;;;3.50;;
40955;SDS011;26687;48.254;11.454;2023-03-21T16:58:43;4.10;;;3.70;;
40955;SDS011;26687;48.254;11.454;2023-03-21T17:01:43;3.73;;;3.33;;
40955;SDS011;26687;48.254;11.454;2023-03-21T17:04:47;4.47;;;4.07;;
40955;SDS011;26687;48.254;11.454;2023-03-21T17:07:47;3.63;;;3.33;;
40955;SDS011;26687;48.254;11.454;2023-03-21T17:10:47;3.70;;;3.40;;
40955;SDS011;26687;48.254;11.454;2023-03-21T17:13:48;4.00;;;3.47;;
40955;SDS011;26687;48.254;11.454;2023-03-21T17:16:49;3.88;;;3.58;;
40955;SDS011;26687;48.254;11.454;2023-03-21T17:19:49;6.70;;;5.07;;
40955;SDS011;26687;48.254;11.454;2023-03-21T17:22:49;6.23;;;5.27;;
40955;SDS011;26687;48.254;11.454;2023-03-21T17:25:50;5.45;;;4.32;;
40955;SDS011;26687;48.254;11.454;2023-03-21T17:28:50;4.43;;;4.13;;
40955;SDS011;26687;48.254;11.454;2023-03-21T17:31:50;4.80;;;4.40;;
40955;SDS011;26687;48.254;11.454;2023-03-21T17:34:51;4.67;;;4.33;;
40955;SDS011;26687;48.254;11.454;2023-03-21T17:37:52;5.00;;;4.47;;
40955;SDS011;26687;48.254;11.454;2023-03-21T17:40:53;5.63;;;4.15;;
40955;SDS011;26687;48.254;11.454;2023-03-21T17:43:53;4.57;;;4.28;;
40955;SDS011;26687;48.254;11.454;2023-03-21T17:46:54;4.68;;;4.30;;
40955;SDS011;26687;48.254;11.454;2023-03-21T17:49:54;4.80;;;4.38;;
40955;SDS011;26687;48.254;11.454;2023-03-21T17:52:54;5.05;;;4.65;;
40955;SDS011;26687;48.254;11.454;2023-03-21T17:55:56;5.03;;;4.63;;
40955;SDS011;26687;48.254;11.454;2023-03-21T17:58:57;5.07;;;4.55;;
40955;SDS011;26687;48.254;11.454;2023-03-21T18:01:58;5.10;;;4.70;;
40955;SDS011;26687;48.254;11.454;2023-03-21T18:04:58;5.50;;;4.78;;
40955;SDS011;26687;48.254;11.454;2023-03-21T18:07:58;5.25;;;4.75;;
40955;SDS011;26687;48.254;11.454;2023-03-21T18:10:59;5.53;;;5.05;;
40955;SDS011;26687;48.254;11.454;2023-03-21T18:13:59;5.60;;;4.90;;
40955;SDS011;26687;48.254;11.454;2023-03-21T18:16:59;5.38;;;4.88;;
40955;SDS011;26687;48.254;11.454;2023-03-21T18:19:59;5.33;;;4.83;;
40955;SDS011;26687;48.254;11.454;2023-03-21T18:23:00;6.35;;;5.82;;
40955;SDS011;26687;48.254;11.454;2023-03-21T18:26:00;6.87;;;6.00;;
40955;SDS011;26687;48.254;11.454;2023-03-21T18:29:01;6.15;;;5.63;;
40955;SDS011;26687;48.254;11.454;2023-03-21T18:32:01;7.28;;;6.47;;
40955;SDS011;26687;48.254;11.454;2023-03-21T18:35:03;6.55;;;5.75;;
40955;SDS011;26687;48.254;11.454;2023-03-21T18:38:03;6.47;;;5.97;;
40955;SDS011;26687;48.254;11.454;2023-03-21T18:41:04;6.53;;;5.30;;
40955;SDS011;26687;48.254;11.454;2023-03-21T18:44:04;5.80;;;5.25;;
40955;SDS011;26687;48.254;11.454;2023-03-21T18:47:05;5.70;;;5.20;;
40955;SDS011;26687;48.254;11.454;2023-03-21T18:50:06;6.00;;;5.40;;
40955;SDS011;26687;48.254;11.454;2023-03-21T18:53:08;6.77;;;5.53;;
40955;SDS011;26687;48.254;11.454;2023-03-21T18:56:09;8.90;;;6.05;;
40955;SDS011;26687;48.254;11.454;2023-03-21T18:59:09;8.43;;;6.67;;
40955;SDS011;26687;48.254;11.454;2023-03-21T19:02:10;7.57;;;6.82;;
40955;SDS011;26687;48.254;11.454;2023-03-21T19:05:11;8.10;;;7.40;;
40955;SDS011;26687;48.254;11.454;2023-03-21T19:08:11;8.88;;;8.02;;
40955;SDS011;26687;48.254;11.454;2023-03-21T19:11:11;9.37;;;8.43;;
40955;SDS011;26687;48.254;11.454;2023-03-21T19:14:12;9.50;;;8.50;;
40955;SDS011;26687;48.254;11.454;2023-03-21T19:17:13;8.50;;;7.70;;
40955;SDS011;26687;48.254;11.454;2023-03-21T19:20:14;10.23;;;7.22;;
40955;SDS011;26687;48.254;11.454;2023-03-21T19:23:15;8.48;;;7.55;;
40955;SDS011;26687;48.254;11.454;2023-03-21T19:26:15;8.07;;;7.30;;
40955;SDS011;26687;48.254;11.454;2023-03-21T19:29:15;8.10;;;7.30;;
40955;SDS011;26687;48.254;11.454;2023-03-21T19:32:16;9.40;;;8.00;;
40955;SDS011;26687;48.254;11.454;2023-03-21T19:35:16;8.40;;;7.45;;
40955;SDS011;26687;48.254;11.454;2023-03-21T19:38:16;8.73;;;7.83;;
40955;SDS011;26687;48.254;11.454;2023-03-21T19:41:17;10.43;;;8.13;;
40955;SDS011;26687;48.254;11.454;2023-03-21T19:44:17;8.25;;;7.35;;